sensor_id;sensor_type;location;lat;lon;timestamp;P1;durP1;ratioP1;P2;durP2;ratioP2
54139;SDS011;40046;53.254;5.900;2024-02-15T00:00:40;45.55;;;18.13;;
54139;SDS011;40046;53.254;5.900;2024-02-15T00:03:08;51.15;;;19.23;;
54139;SDS011;40046;53.254;5.900;2024-02-15T00:05:38;47.53;;;18.23;;
54139;SDS011;40046;53.254;5.900;2024-02-15T00:08:04;53.83;;;18.95;;
54139;SDS011;40046;53.254;5.900;2024-02-15T00:10:31;44.33;;;16.85;;
54139;SDS011;40046;53.254;5.900;2024-02-15T00:12:58;57.63;;;19.13;;
54139;SDS011;40046;53.254;5.900;2024-02-15T00:15:24;44.55;;;15.73;;
54139;SDS011;40046;53.254;5.900;2024-02-15T00:17:50;42.30;;;16.75;;
54139;SDS011;40046;53.254;5.900;2024-02-15T00:20:17;44.00;;;16.10;;
54139;SDS011;40046;53.254;5.900;2024-02-15T00:22:43;48.63;;;16.63;;
54139;SDS011;40046;53.254;5.900;2024-02-15T00:25:10;38.35;;;14.32;;
54139;SDS011;40046;53.254;5.900;2024-02-15T00:27:36;35.88;;;14.38;;
54139;SDS011;40046;53.254;5.900;2024-02-15T00:30:03;41.67;;;14.35;;
54139;SDS011;40046;53.254;5.900;2024-02-15T00:32:32;44.70;;;15.18;;
54139;SDS011;40046;53.254;5.900;2024-02-15T00:34:59;43.33;;;15.05;;
54139;SDS011;40046;53.254;5.900;2024-02-15T00:37:25;42.20;;;14.88;;
54139;SDS011;40046;53.254;5.900;2024-02-15T00:39:51;45.83;;;13.35;;
54139;SDS011;40046;53.254;5.900;2024-02-15T00:42:17;50.70;;;13.70;;
54139;SDS011;40046;53.254;5.900;2024-02-15T00:44:44;34.28;;;13.35;;
54139;SDS011;40046;53.254;5.900;2024-02-15T00:47:10;38.10;;;13.40;;
54139;SDS011;40046;53.254;5.900;2024-02-15T00:49:37;37.38;;;11.88;;
54139;SDS011;40046;53.254;5.900;2024-02-15T00:52:03;32.58;;;12.30;;
54139;SDS011;40046;53.254;5.900;2024-02-15T00:54:30;45.85;;;12.75;;
54139;SDS011;40046;53.254;5.900;2024-02-15T00:56:56;32.33;;;12.05;;
54139;SDS011;40046;53.254;5.900;2024-02-15T00:59:22;41.60;;;11.75;;
54139;SDS011;40046;53.254;5.900;2024-02-15T01:01:48;30.42;;;11.02;;
54139;SDS011;40046;53.254;5.900;2024-02-15T01:04:15;34.78;;;12.32;;
54139;SDS011;40046;53.254;5.900;2024-02-15T01:06:41;39.97;;;12.77;;
54139;SDS011;40046;53.254;5.900;2024-02-15T01:09:07;35.13;;;12.27;;
54139;SDS011;40046;53.254;5.900;2024-02-15T01:11:35;38.28;;;13.00;;
54139;SDS011;40046;53.254;5.900;2024-02-15T01:14:01;25.75;;;11.15;;
54139;SDS011;40046;53.254;5.900;2024-02-15T01:16:28;39.35;;;12.07;;
54139;SDS011;40046;53.254;5.900;2024-02-15T01:18:54;33.90;;;11.35;;
54139;SDS011;40046;53.254;5.900;2024-02-15T01:21:20;30.05;;;11.27;;
54139;SDS011;40046;53.254;5.900;2024-02-15T01:23:47;32.05;;;11.35;;
54139;SDS011;40046;53.254;5.900;2024-02-15T01:26:13;31.80;;;11.98;;
54139;SDS011;40046;53.254;5.900;2024-02-15T01:28:40;36.05;;;11.48;;
54139;SDS011;40046;53.254;5.900;2024-02-15T01:31:08;29.15;;;10.25;;
54139;SDS011;40046;53.254;5.900;2024-02-15T01:33:36;32.08;;;11.73;;
54139;SDS011;40046;53.254;5.900;2024-02-15T01:36:02;34.38;;;10.82;;
54139;SDS011;40046;53.254;5.900;2024-02-15T01:38:29;29.13;;;9.70;;
54139;SDS011;40046;53.254;5.900;2024-02-15T01:40:55;25.65;;;9.57;;
54139;SDS011;40046;53.254;5.900;2024-02-15T01:43:21;27.10;;;10.75;;
54139;SDS011;40046;53.254;5.900;2024-02-15T01:45:48;30.23;;;11.38;;
54139;SDS011;40046;53.254;5.900;2024-02-15T01:48:17;24.27;;;9.38;;
54139;SDS011;40046;53.254;5.900;2024-02-15T01:50:43;31.15;;;10.05;;
54139;SDS011;40046;53.254;5.900;2024-02-15T01:53:09;27.60;;;8.82;;
54139;SDS011;40046;53.254;5.900;2024-02-15T01:55:37;23.63;;;9.07;;
54139;SDS011;40046;53.254;5.900;2024-02-15T01:58:05;25.05;;;8.38;;
54139;SDS011;40046;53.254;5.900;2024-02-15T02:00:32;27.58;;;9.35;;
54139;SDS011;40046;53.254;5.900;2024-02-15T02:02:58;25.85;;;9.35;;
54139;SDS011;40046;53.254;5.900;2024-02-15T02:05:27;27.02;;;8.95;;
54139;SDS011;40046;53.254;5.900;2024-02-15T02:07:57;31.75;;;8.80;;
54139;SDS011;40046;53.254;5.900;2024-02-15T02:10:26;27.13;;;9.55;;
54139;SDS011;40046;53.254;5.900;2024-02-15T02:12:58;26.23;;;10.15;;
54139;SDS011;40046;53.254;5.900;2024-02-15T02:15:24;30.52;;;10.15;;
54139;SDS011;40046;53.254;5.900;2024-02-15T02:17:50;23.92;;;9.77;;
54139;SDS011;40046;53.254;5.900;2024-02-15T02:20:16;21.08;;;10.13;;
54139;SDS011;40046;53.254;5.900;2024-02-15T02:22:44;32.45;;;11.13;;
54139;SDS011;40046;53.254;5.900;2024-02-15T02:25:11;32.10;;;12.13;;
54139;SDS011;40046;53.254;5.900;2024-02-15T02:27:38;35.22;;;10.57;;
54139;SDS011;40046;53.254;5.900;2024-02-15T02:30:05;31.83;;;11.10;;
54139;SDS011;40046;53.254;5.900;2024-02-15T02:32:34;28.45;;;10.57;;
54139;SDS011;40046;53.254;5.900;2024-02-15T02:35:01;20.58;;;9.73;;
54139;SDS011;40046;53.254;5.900;2024-02-15T02:37:28;30.08;;;9.32;;
54139;SDS011;40046;53.254;5.900;2024-02-15T02:39:54;28.52;;;11.57;;
54139;SDS011;40046;53.254;5.900;2024-02-15T02:42:21;25.42;;;11.30;;
54139;SDS011;40046;53.254;5.900;2024-02-15T02:44:48;30.15;;;12.07;;
54139;SDS011;40046;53.254;5.900;2024-02-15T02:47:14;26.58;;;12.50;;
54139;SDS011;40046;53.254;5.900;2024-02-15T02:49:40;33.25;;;14.30;;
54139;SDS011;40046;53.254;5.900;2024-02-15T02:52:07;32.85;;;13.88;;
54139;SDS011;40046;53.254;5.900;2024-02-15T02:54:33;39.70;;;15.48;;
54139;SDS011;40046;53.254;5.900;2024-02-15T02:57:00;33.80;;;13.70;;
54139;SDS011;40046;53.254;5.900;2024-02-15T02:59:26;50.65;;;14.07;;
54139;SDS011;40046;53.254;5.900;2024-02-15T03:01:52;38.45;;;13.70;;
54139;SDS011;40046;53.254;5.900;2024-02-15T03:04:21;31.75;;;12.02;;
54139;SDS011;40046;53.254;5.900;2024-02-15T03:06:48;38.95;;;13.90;;
54139;SDS011;40046;53.254;5.900;2024-02-15T03:09:15;40.45;;;12.10;;
54139;SDS011;40046;53.254;5.900;2024-02-15T03:11:41;46.25;;;13.23;;
54139;SDS011;40046;53.254;5.900;2024-02-15T03:14:07;43.17;;;12.73;;
54139;SDS011;40046;53.254;5.900;2024-02-15T03:16:34;37.22;;;11.57;;
54139;SDS011;40046;53.254;5.900;2024-02-15T03:19:02;40.30;;;12.68;;
54139;SDS011;40046;53.254;5.900;2024-02-15T03:21:28;46.45;;;18.33;;
54139;SDS011;40046;53.254;5.900;2024-02-15T03:23:54;41.10;;;16.50;;
54139;SDS011;40046;53.254;5.900;2024-02-15T03:26:30;55.75;;;19.17;;
54139;SDS011;40046;53.254;5.900;2024-02-15T03:29:02;47.47;;;20.08;;
54139;SDS011;40046;53.254;5.900;2024-02-15T03:31:29;51.22;;;20.88;;
54139;SDS011;40046;53.254;5.900;2024-02-15T03:33:56;57.95;;;21.10;;
54139;SDS011;40046;53.254;5.900;2024-02-15T03:36:24;46.38;;;19.67;;
54139;SDS011;40046;53.254;5.900;2024-02-15T03:38:50;43.60;;;18.38;;
54139;SDS011;40046;53.254;5.900;2024-02-15T03:41:19;45.15;;;17.83;;
54139;SDS011;40046;53.254;5.900;2024-02-15T03:43:45;47.38;;;20.35;;
54139;SDS011;40046;53.254;5.900;2024-02-15T03:46:14;57.08;;;20.63;;
54139;SDS011;40046;53.254;5.900;2024-02-15T03:48:42;37.33;;;17.02;;
54139;SDS011;40046;53.254;5.900;2024-02-15T03:51:15;47.28;;;16.70;;
54139;SDS011;40046;53.254;5.900;2024-02-15T03:53:43;58.20;;;18.08;;
54139;SDS011;40046;53.254;5.900;2024-02-15T03:56:10;48.92;;;18.52;;
54139;SDS011;40046;53.254;5.900;2024-02-15T03:58:36;47.22;;;16.00;;
54139;SDS011;40046;53.254;5.900;2024-02-15T04:01:03;38.40;;;16.35;;
54139;SDS011;40046;53.254;5.900;2024-02-15T04:03:32;42.88;;;15.73;;
54139;SDS011;40046;53.254;5.900;2024-02-15T04:05:59;36.85;;;15.00;;
54139;SDS011;40046;53.254;5.900;2024-02-15T04:08:25;37.60;;;15.80;;
54139;SDS011;40046;53.254;5.900;2024-02-15T04:10:52;36.45;;;15.73;;
54139;SDS011;40046;53.254;5.900;2024-02-15T04:13:18;37.97;;;15.90;;
54139;SDS011;40046;53.254;5.900;2024-02-15T04:15:44;32.05;;;15.02;;
54139;SDS011;40046;53.254;5.900;2024-02-15T04:18:12;37.03;;;15.18;;
54139;SDS011;40046;53.254;5.900;2024-02-15T04:20:39;40.40;;;14.52;;
54139;SDS011;40046;53.254;5.900;2024-02-15T04:23:10;34.80;;;13.90;;
54139;SDS011;40046;53.254;5.900;2024-02-15T04:25:37;32.28;;;14.77;;
54139;SDS011;40046;53.254;5.900;2024-02-15T04:28:03;28.83;;;14.85;;
54139;SDS011;40046;53.254;5.900;2024-02-15T04:30:29;28.42;;;14.55;;
54139;SDS011;40046;53.254;5.900;2024-02-15T04:32:56;29.75;;;14.27;;
54139;SDS011;40046;53.254;5.900;2024-02-15T04:35:22;42.63;;;14.40;;
54139;SDS011;40046;53.254;5.900;2024-02-15T04:37:49;48.42;;;18.65;;
54139;SDS011;40046;53.254;5.900;2024-02-15T04:40:18;39.55;;;14.57;;
54139;SDS011;40046;53.254;5.900;2024-02-15T04:42:44;45.58;;;17.30;;
54139;SDS011;40046;53.254;5.900;2024-02-15T04:45:12;30.23;;;14.45;;
54139;SDS011;40046;53.254;5.900;2024-02-15T04:47:40;37.58;;;16.45;;
54139;SDS011;40046;53.254;5.900;2024-02-15T04:50:07;37.15;;;18.00;;
54139;SDS011;40046;53.254;5.900;2024-02-15T04:52:34;42.28;;;18.55;;
54139;SDS011;40046;53.254;5.900;2024-02-15T04:55:00;46.85;;;20.33;;
54139;SDS011;40046;53.254;5.900;2024-02-15T04:57:29;36.67;;;19.90;;
54139;SDS011;40046;53.254;5.900;2024-02-15T04:59:56;34.70;;;19.15;;
54139;SDS011;40046;53.254;5.900;2024-02-15T05:02:24;41.25;;;19.52;;
54139;SDS011;40046;53.254;5.900;2024-02-15T05:04:51;37.42;;;20.90;;
54139;SDS011;40046;53.254;5.900;2024-02-15T05:07:22;41.28;;;20.85;;
54139;SDS011;40046;53.254;5.900;2024-02-15T05:09:48;37.15;;;19.85;;
54139;SDS011;40046;53.254;5.900;2024-02-15T05:12:23;39.88;;;20.73;;
54139;SDS011;40046;53.254;5.900;2024-02-15T05:14:50;41.22;;;20.95;;
54139;SDS011;40046;53.254;5.900;2024-02-15T05:17:16;32.45;;;19.02;;
54139;SDS011;40046;53.254;5.900;2024-02-15T05:19:43;37.67;;;22.60;;
54139;SDS011;40046;53.254;5.900;2024-02-15T05:22:10;38.63;;;20.35;;
54139;SDS011;40046;53.254;5.900;2024-02-15T05:24:36;36.38;;;19.13;;
54139;SDS011;40046;53.254;5.900;2024-02-15T05:27:05;41.25;;;20.63;;
54139;SDS011;40046;53.254;5.900;2024-02-15T05:29:31;37.53;;;20.00;;
54139;SDS011;40046;53.254;5.900;2024-02-15T05:32:01;38.40;;;23.20;;
54139;SDS011;40046;53.254;5.900;2024-02-15T05:34:27;42.17;;;20.17;;
54139;SDS011;40046;53.254;5.900;2024-02-15T05:36:57;37.55;;;20.80;;
54139;SDS011;40046;53.254;5.900;2024-02-15T05:39:23;35.13;;;20.80;;
54139;SDS011;40046;53.254;5.900;2024-02-15T05:41:50;40.38;;;20.55;;
54139;SDS011;40046;53.254;5.900;2024-02-15T05:44:16;39.97;;;22.48;;
54139;SDS011;40046;53.254;5.900;2024-02-15T05:46:46;36.38;;;21.40;;
54139;SDS011;40046;53.254;5.900;2024-02-15T05:49:12;44.70;;;22.33;;
54139;SDS011;40046;53.254;5.900;2024-02-15T05:51:42;35.67;;;22.05;;
54139;SDS011;40046;53.254;5.900;2024-02-15T05:54:10;44.35;;;21.92;;
54139;SDS011;40046;53.254;5.900;2024-02-15T05:56:36;37.15;;;20.92;;
54139;SDS011;40046;53.254;5.900;2024-02-15T05:59:02;36.58;;;21.42;;
54139;SDS011;40046;53.254;5.900;2024-02-15T06:01:35;40.60;;;22.47;;
54139;SDS011;40046;53.254;5.900;2024-02-15T06:04:02;39.10;;;21.30;;
54139;SDS011;40046;53.254;5.900;2024-02-15T06:06:30;46.85;;;22.80;;
54139;SDS011;40046;53.254;5.900;2024-02-15T06:08:56;49.20;;;24.55;;
54139;SDS011;40046;53.254;5.900;2024-02-15T06:11:25;44.88;;;22.55;;
54139;SDS011;40046;53.254;5.900;2024-02-15T06:13:51;33.28;;;20.95;;
54139;SDS011;40046;53.254;5.900;2024-02-15T06:16:17;49.13;;;23.60;;
54139;SDS011;40046;53.254;5.900;2024-02-15T06:18:43;40.45;;;21.17;;
54139;SDS011;40046;53.254;5.900;2024-02-15T06:21:09;41.88;;;21.23;;
54139;SDS011;40046;53.254;5.900;2024-02-15T06:23:35;40.00;;;22.00;;
54139;SDS011;40046;53.254;5.900;2024-02-15T06:26:02;37.67;;;21.77;;
54139;SDS011;40046;53.254;5.900;2024-02-15T06:28:28;37.72;;;21.05;;
54139;SDS011;40046;53.254;5.900;2024-02-15T06:31:13;46.00;;;22.92;;
54139;SDS011;40046;53.254;5.900;2024-02-15T06:33:58;41.40;;;21.80;;
54139;SDS011;40046;53.254;5.900;2024-02-15T06:36:47;47.22;;;22.13;;
54139;SDS011;40046;53.254;5.900;2024-02-15T06:39:32;36.70;;;21.45;;
54139;SDS011;40046;53.254;5.900;2024-02-15T06:42:08;39.70;;;21.35;;
54139;SDS011;40046;53.254;5.900;2024-02-15T06:44:36;33.65;;;21.30;;
54139;SDS011;40046;53.254;5.900;2024-02-15T06:47:06;50.97;;;25.65;;
54139;SDS011;40046;53.254;5.900;2024-02-15T06:49:34;40.00;;;21.90;;
54139;SDS011;40046;53.254;5.900;2024-02-15T06:52:00;49.15;;;23.67;;
54139;SDS011;40046;53.254;5.900;2024-02-15T06:54:27;38.28;;;22.42;;
54139;SDS011;40046;53.254;5.900;2024-02-15T06:56:54;56.28;;;26.25;;
54139;SDS011;40046;53.254;5.900;2024-02-15T06:59:20;44.92;;;22.45;;
54139;SDS011;40046;53.254;5.900;2024-02-15T07:01:48;49.72;;;25.95;;
54139;SDS011;40046;53.254;5.900;2024-02-15T07:04:17;53.65;;;27.58;;
54139;SDS011;40046;53.254;5.900;2024-02-15T07:06:44;47.00;;;25.08;;
54139;SDS011;40046;53.254;5.900;2024-02-15T07:09:13;50.75;;;27.02;;
54139;SDS011;40046;53.254;5.900;2024-02-15T07:11:44;45.80;;;26.77;;
54139;SDS011;40046;53.254;5.900;2024-02-15T07:14:12;53.70;;;27.17;;
54139;SDS011;40046;53.254;5.900;2024-02-15T07:16:38;61.60;;;29.33;;
54139;SDS011;40046;53.254;5.900;2024-02-15T07:19:05;52.25;;;29.02;;
54139;SDS011;40046;53.254;5.900;2024-02-15T07:21:34;51.40;;;29.30;;
54139;SDS011;40046;53.254;5.900;2024-02-15T07:24:01;49.40;;;28.30;;
54139;SDS011;40046;53.254;5.900;2024-02-15T07:26:27;61.45;;;30.83;;
54139;SDS011;40046;53.254;5.900;2024-02-15T07:28:53;63.90;;;30.80;;
54139;SDS011;40046;53.254;5.900;2024-02-15T07:31:21;52.28;;;27.70;;
54139;SDS011;40046;53.254;5.900;2024-02-15T07:33:48;55.95;;;30.85;;
54139;SDS011;40046;53.254;5.900;2024-02-15T07:36:19;50.55;;;30.40;;
54139;SDS011;40046;53.254;5.900;2024-02-15T07:38:47;47.35;;;27.90;;
54139;SDS011;40046;53.254;5.900;2024-02-15T07:41:17;41.17;;;26.38;;
54139;SDS011;40046;53.254;5.900;2024-02-15T07:43:45;51.53;;;29.02;;
54139;SDS011;40046;53.254;5.900;2024-02-15T07:46:13;47.25;;;28.90;;
54139;SDS011;40046;53.254;5.900;2024-02-15T07:48:39;48.13;;;27.92;;
54139;SDS011;40046;53.254;5.900;2024-02-15T07:51:11;54.22;;;29.70;;
54139;SDS011;40046;53.254;5.900;2024-02-15T07:53:37;50.58;;;31.05;;
54139;SDS011;40046;53.254;5.900;2024-02-15T07:56:03;52.28;;;29.17;;
54139;SDS011;40046;53.254;5.900;2024-02-15T07:58:30;41.95;;;25.90;;
54139;SDS011;40046;53.254;5.900;2024-02-15T08:00:56;48.70;;;30.05;;
54139;SDS011;40046;53.254;5.900;2024-02-15T08:03:24;60.45;;;29.55;;
54139;SDS011;40046;53.254;5.900;2024-02-15T08:05:54;45.47;;;25.73;;
54139;SDS011;40046;53.254;5.900;2024-02-15T08:08:20;42.47;;;25.48;;
54139;SDS011;40046;53.254;5.900;2024-02-15T08:10:47;38.65;;;24.80;;
54139;SDS011;40046;53.254;5.900;2024-02-15T08:13:16;37.70;;;25.10;;
54139;SDS011;40046;53.254;5.900;2024-02-15T08:15:43;43.90;;;22.77;;
54139;SDS011;40046;53.254;5.900;2024-02-15T08:18:11;37.03;;;23.00;;
54139;SDS011;40046;53.254;5.900;2024-02-15T08:20:38;37.78;;;23.17;;
54139;SDS011;40046;53.254;5.900;2024-02-15T08:23:05;52.42;;;28.40;;
54139;SDS011;40046;53.254;5.900;2024-02-15T08:25:31;43.83;;;25.38;;
54139;SDS011;40046;53.254;5.900;2024-02-15T08:27:58;51.33;;;28.17;;
54139;SDS011;40046;53.254;5.900;2024-02-15T08:30:30;50.67;;;29.52;;
54139;SDS011;40046;53.254;5.900;2024-02-15T08:32:56;54.95;;;29.42;;
54139;SDS011;40046;53.254;5.900;2024-02-15T08:35:23;56.22;;;30.35;;
54139;SDS011;40046;53.254;5.900;2024-02-15T08:37:49;59.15;;;29.85;;
54139;SDS011;40046;53.254;5.900;2024-02-15T08:40:17;56.45;;;29.42;;
54139;SDS011;40046;53.254;5.900;2024-02-15T08:42:49;55.38;;;30.52;;
54139;SDS011;40046;53.254;5.900;2024-02-15T08:45:15;53.35;;;29.33;;
54139;SDS011;40046;53.254;5.900;2024-02-15T08:47:42;50.08;;;28.70;;
54139;SDS011;40046;53.254;5.900;2024-02-15T08:50:11;57.28;;;31.92;;
54139;SDS011;40046;53.254;5.900;2024-02-15T08:52:37;56.50;;;30.33;;
54139;SDS011;40046;53.254;5.900;2024-02-15T08:55:05;48.38;;;27.90;;
54139;SDS011;40046;53.254;5.900;2024-02-15T08:57:32;58.28;;;32.72;;
54139;SDS011;40046;53.254;5.900;2024-02-15T08:59:59;61.58;;;30.98;;
54139;SDS011;40046;53.254;5.900;2024-02-15T09:02:25;53.97;;;29.63;;
54139;SDS011;40046;53.254;5.900;2024-02-15T09:04:51;50.90;;;31.20;;
54139;SDS011;40046;53.254;5.900;2024-02-15T09:07:17;50.13;;;30.70;;
54139;SDS011;40046;53.254;5.900;2024-02-15T09:09:43;47.55;;;29.45;;
54139;SDS011;40046;53.254;5.900;2024-02-15T09:12:09;45.85;;;28.27;;
54139;SDS011;40046;53.254;5.900;2024-02-15T09:14:38;44.90;;;27.75;;
54139;SDS011;40046;53.254;5.900;2024-02-15T09:17:04;43.20;;;27.15;;
54139;SDS011;40046;53.254;5.900;2024-02-15T09:19:33;45.55;;;27.85;;
54139;SDS011;40046;53.254;5.900;2024-02-15T09:22:00;49.10;;;29.17;;
54139;SDS011;40046;53.254;5.900;2024-02-15T09:24:29;45.17;;;26.85;;
54139;SDS011;40046;53.254;5.900;2024-02-15T09:26:55;40.03;;;27.33;;
54139;SDS011;40046;53.254;5.900;2024-02-15T09:29:21;37.03;;;25.27;;
54139;SDS011;40046;53.254;5.900;2024-02-15T09:31:52;42.45;;;25.23;;
54139;SDS011;40046;53.254;5.900;2024-02-15T09:34:18;39.28;;;25.52;;
54139;SDS011;40046;53.254;5.900;2024-02-15T09:36:44;38.83;;;24.42;;
54139;SDS011;40046;53.254;5.900;2024-02-15T09:39:11;34.72;;;23.95;;
54139;SDS011;40046;53.254;5.900;2024-02-15T09:41:50;34.30;;;23.65;;
54139;SDS011;40046;53.254;5.900;2024-02-15T09:44:23;28.20;;;21.08;;
54139;SDS011;40046;53.254;5.900;2024-02-15T09:46:56;33.17;;;22.88;;
54139;SDS011;40046;53.254;5.900;2024-02-15T09:49:23;27.50;;;19.50;;
54139;SDS011;40046;53.254;5.900;2024-02-15T09:51:49;24.95;;;18.65;;
54139;SDS011;40046;53.254;5.900;2024-02-15T09:54:16;26.35;;;19.50;;
54139;SDS011;40046;53.254;5.900;2024-02-15T09:56:47;20.63;;;16.73;;
54139;SDS011;40046;53.254;5.900;2024-02-15T09:59:14;24.58;;;17.20;;
54139;SDS011;40046;53.254;5.900;2024-02-15T10:01:43;24.13;;;17.67;;
54139;SDS011;40046;53.254;5.900;2024-02-15T10:04:12;18.40;;;14.63;;
54139;SDS011;40046;53.254;5.900;2024-02-15T10:06:41;21.73;;;15.23;;
54139;SDS011;40046;53.254;5.900;2024-02-15T10:09:24;20.10;;;15.45;;
54139;SDS011;40046;53.254;5.900;2024-02-15T10:11:58;17.33;;;14.70;;
54139;SDS011;40046;53.254;5.900;2024-02-15T10:14:24;18.67;;;15.40;;
54139;SDS011;40046;53.254;5.900;2024-02-15T10:16:51;17.73;;;14.73;;
54139;SDS011;40046;53.254;5.900;2024-02-15T10:19:18;20.23;;;15.45;;
54139;SDS011;40046;53.254;5.900;2024-02-15T10:21:50;17.33;;;14.60;;
54139;SDS011;40046;53.254;5.900;2024-02-15T10:24:18;17.10;;;14.10;;
54139;SDS011;40046;53.254;5.900;2024-02-15T10:26:45;17.73;;;13.80;;
54139;SDS011;40046;53.254;5.900;2024-02-15T10:29:13;19.33;;;13.70;;
54139;SDS011;40046;53.254;5.900;2024-02-15T10:31:52;16.50;;;14.13;;
54139;SDS011;40046;53.254;5.900;2024-02-15T10:34:18;18.58;;;14.45;;
54139;SDS011;40046;53.254;5.900;2024-02-15T10:36:44;19.20;;;15.48;;
54139;SDS011;40046;53.254;5.900;2024-02-15T10:39:14;15.90;;;12.18;;
54139;SDS011;40046;53.254;5.900;2024-02-15T10:41:45;14.63;;;12.52;;
54139;SDS011;40046;53.254;5.900;2024-02-15T10:44:13;13.88;;;12.40;;
54139;SDS011;40046;53.254;5.900;2024-02-15T10:46:41;15.85;;;13.95;;
54139;SDS011;40046;53.254;5.900;2024-02-15T10:49:08;15.68;;;13.18;;
54139;SDS011;40046;53.254;5.900;2024-02-15T10:51:34;15.52;;;13.93;;
54139;SDS011;40046;53.254;5.900;2024-02-15T10:54:02;13.93;;;12.15;;
54139;SDS011;40046;53.254;5.900;2024-02-15T10:56:32;12.88;;;11.60;;
54139;SDS011;40046;53.254;5.900;2024-02-15T10:59:21;13.88;;;12.18;;
54139;SDS011;40046;53.254;5.900;2024-02-15T11:01:52;12.02;;;10.82;;
54139;SDS011;40046;53.254;5.900;2024-02-15T11:04:20;14.05;;;10.75;;
54139;SDS011;40046;53.254;5.900;2024-02-15T11:06:47;11.95;;;10.75;;
54139;SDS011;40046;53.254;5.900;2024-02-15T11:09:15;11.38;;;10.27;;
54139;SDS011;40046;53.254;5.900;2024-02-15T11:11:41;10.98;;;9.98;;
54139;SDS011;40046;53.254;5.900;2024-02-15T11:16:59;11.38;;;10.27;;
54139;SDS011;40046;53.254;5.900;2024-02-15T11:22:07;12.20;;;10.48;;
54139;SDS011;40046;53.254;5.900;2024-02-15T11:24:36;11.27;;;9.98;;
54139;SDS011;40046;53.254;5.900;2024-02-15T11:27:03;10.93;;;9.57;;
54139;SDS011;40046;53.254;5.900;2024-02-15T11:35:06;12.60;;;10.52;;
54139;SDS011;40046;53.254;5.900;2024-02-15T11:40:26;12.15;;;10.77;;
54139;SDS011;40046;53.254;5.900;2024-02-15T11:42:54;14.05;;;11.55;;
54139;SDS011;40046;53.254;5.900;2024-02-15T11:45:23;14.93;;;11.38;;
54139;SDS011;40046;53.254;5.900;2024-02-15T11:47:53;18.17;;;12.25;;
54139;SDS011;40046;53.254;5.900;2024-02-15T11:50:22;18.80;;;13.50;;
54139;SDS011;40046;53.254;5.900;2024-02-15T11:52:49;23.63;;;14.05;;
54139;SDS011;40046;53.254;5.900;2024-02-15T11:55:19;23.92;;;15.05;;
54139;SDS011;40046;53.254;5.900;2024-02-15T11:57:55;25.50;;;15.85;;
54139;SDS011;40046;53.254;5.900;2024-02-15T12:00:28;28.00;;;16.83;;
54139;SDS011;40046;53.254;5.900;2024-02-15T12:03:13;36.65;;;19.77;;
54139;SDS011;40046;53.254;5.900;2024-02-15T12:05:59;53.85;;;21.58;;
54139;SDS011;40046;53.254;5.900;2024-02-15T12:08:47;45.50;;;20.75;;
54139;SDS011;40046;53.254;5.900;2024-02-15T12:11:32;61.60;;;23.60;;
54139;SDS011;40046;53.254;5.900;2024-02-15T12:14:18;55.33;;;24.15;;
54139;SDS011;40046;53.254;5.900;2024-02-15T12:17:10;53.00;;;23.58;;
54139;SDS011;40046;53.254;5.900;2024-02-15T12:19:56;51.88;;;23.20;;
54139;SDS011;40046;53.254;5.900;2024-02-15T12:22:33;48.42;;;22.98;;
54139;SDS011;40046;53.254;5.900;2024-02-15T12:25:01;51.45;;;24.83;;
54139;SDS011;40046;53.254;5.900;2024-02-15T12:27:37;48.90;;;24.00;;
54139;SDS011;40046;53.254;5.900;2024-02-15T12:30:04;51.70;;;27.15;;
54139;SDS011;40046;53.254;5.900;2024-02-15T12:32:32;54.00;;;26.77;;
54139;SDS011;40046;53.254;5.900;2024-02-15T12:35:17;59.55;;;26.88;;
54139;SDS011;40046;53.254;5.900;2024-02-15T12:37:48;46.70;;;24.17;;
54139;SDS011;40046;53.254;5.900;2024-02-15T12:40:19;44.28;;;24.45;;
54139;SDS011;40046;53.254;5.900;2024-02-15T12:42:47;55.75;;;25.52;;
54139;SDS011;40046;53.254;5.900;2024-02-15T12:45:17;46.35;;;23.83;;
54139;SDS011;40046;53.254;5.900;2024-02-15T12:47:49;50.78;;;25.30;;
54139;SDS011;40046;53.254;5.900;2024-02-15T12:50:16;45.13;;;25.38;;
54139;SDS011;40046;53.254;5.900;2024-02-15T12:52:44;42.38;;;24.35;;
54139;SDS011;40046;53.254;5.900;2024-02-15T12:55:19;39.03;;;22.35;;
54139;SDS011;40046;53.254;5.900;2024-02-15T12:57:50;42.33;;;25.08;;
54139;SDS011;40046;53.254;5.900;2024-02-15T13:00:21;39.95;;;24.10;;
54139;SDS011;40046;53.254;5.900;2024-02-15T13:02:49;39.15;;;21.67;;
54139;SDS011;40046;53.254;5.900;2024-02-15T13:05:16;40.40;;;23.35;;
54139;SDS011;40046;53.254;5.900;2024-02-15T13:07:49;45.83;;;26.50;;
54139;SDS011;40046;53.254;5.900;2024-02-15T13:10:16;40.90;;;24.20;;
54139;SDS011;40046;53.254;5.900;2024-02-15T13:12:42;53.88;;;28.95;;
54139;SDS011;40046;53.254;5.900;2024-02-15T13:15:10;52.55;;;27.63;;
54139;SDS011;40046;53.254;5.900;2024-02-15T13:17:39;43.80;;;27.20;;
54139;SDS011;40046;53.254;5.900;2024-02-15T13:20:06;45.78;;;25.67;;
54139;SDS011;40046;53.254;5.900;2024-02-15T13:22:36;46.20;;;27.40;;
54139;SDS011;40046;53.254;5.900;2024-02-15T13:25:04;49.20;;;28.38;;
54139;SDS011;40046;53.254;5.900;2024-02-15T13:27:32;49.80;;;28.27;;
54139;SDS011;40046;53.254;5.900;2024-02-15T13:29:59;51.08;;;27.65;;
54139;SDS011;40046;53.254;5.900;2024-02-15T13:32:25;51.85;;;27.40;;
54139;SDS011;40046;53.254;5.900;2024-02-15T13:34:51;48.83;;;27.55;;
54139;SDS011;40046;53.254;5.900;2024-02-15T13:37:21;49.10;;;25.55;;
54139;SDS011;40046;53.254;5.900;2024-02-15T13:39:51;51.15;;;25.02;;
54139;SDS011;40046;53.254;5.900;2024-02-15T13:42:17;52.70;;;27.52;;
54139;SDS011;40046;53.254;5.900;2024-02-15T13:44:44;48.20;;;25.50;;
54139;SDS011;40046;53.254;5.900;2024-02-15T13:47:12;51.13;;;28.42;;
54139;SDS011;40046;53.254;5.900;2024-02-15T13:49:38;48.88;;;28.17;;
54139;SDS011;40046;53.254;5.900;2024-02-15T13:52:05;56.00;;;30.83;;
54139;SDS011;40046;53.254;5.900;2024-02-15T13:54:32;53.55;;;27.38;;
54139;SDS011;40046;53.254;5.900;2024-02-15T13:57:01;51.60;;;28.15;;
54139;SDS011;40046;53.254;5.900;2024-02-15T13:59:28;54.50;;;28.90;;
54139;SDS011;40046;53.254;5.900;2024-02-15T14:01:54;58.42;;;29.25;;
54139;SDS011;40046;53.254;5.900;2024-02-15T14:04:21;55.58;;;29.75;;
54139;SDS011;40046;53.254;5.900;2024-02-15T14:06:47;59.40;;;28.92;;
54139;SDS011;40046;53.254;5.900;2024-02-15T14:09:13;61.65;;;30.00;;
54139;SDS011;40046;53.254;5.900;2024-02-15T14:11:42;50.50;;;28.10;;
54139;SDS011;40046;53.254;5.900;2024-02-15T14:14:09;59.08;;;32.03;;
54139;SDS011;40046;53.254;5.900;2024-02-15T14:16:35;53.28;;;29.30;;
54139;SDS011;40046;53.254;5.900;2024-02-15T14:19:02;48.38;;;27.48;;
54139;SDS011;40046;53.254;5.900;2024-02-15T14:21:29;48.65;;;27.38;;
54139;SDS011;40046;53.254;5.900;2024-02-15T14:23:58;49.28;;;28.23;;
54139;SDS011;40046;53.254;5.900;2024-02-15T14:26:24;47.40;;;27.08;;
54139;SDS011;40046;53.254;5.900;2024-02-15T14:28:53;50.30;;;28.30;;
54139;SDS011;40046;53.254;5.900;2024-02-15T14:31:19;44.63;;;26.35;;
54139;SDS011;40046;53.254;5.900;2024-02-15T14:34:03;37.53;;;26.27;;
54139;SDS011;40046;53.254;5.900;2024-02-15T14:36:30;37.78;;;24.40;;
54139;SDS011;40046;53.254;5.900;2024-02-15T14:38:56;39.85;;;26.38;;
54139;SDS011;40046;53.254;5.900;2024-02-15T14:41:22;37.03;;;23.98;;